createdAt,value
2019-04-10T00:01:09.205Z,8.10
2019-04-10T00:03:37.827Z,8.00
2019-04-10T00:06:04.688Z,8.00
2019-04-10T00:08:32.455Z,8.00
2019-04-10T00:11:00.467Z,8.00
2019-04-10T00:13:28.931Z,8.00
2019-04-10T00:15:57.077Z,8.00
2019-04-10T00:18:26.199Z,8.00
2019-04-10T00:20:53.310Z,8.00
2019-04-10T00:23:22.651Z,7.90
2019-04-10T00:25:50.795Z,8.00
2019-04-10T00:28:19.093Z,8.00
2019-04-10T00:30:46.267Z,8.00
2019-04-10T00:33:14.568Z,8.00
2019-04-10T00:35:43.762Z,7.90
2019-04-10T00:38:10.890Z,7.90
2019-04-10T00:40:39.510Z,7.90
2019-04-10T00:43:07.337Z,8.00
2019-04-10T00:45:35.656Z,8.10
2019-04-10T00:48:03.778Z,8.00
2019-04-10T00:50:32.775Z,8.00
2019-04-10T00:53:00.925Z,8.00
2019-04-10T00:55:28.861Z,8.00
2019-04-10T00:57:56.658Z,8.00
2019-04-10T01:00:25.554Z,8.00
2019-04-10T01:02:53.325Z,8.00
2019-04-10T01:05:21.373Z,8.00
2019-04-10T01:07:49.775Z,8.00
2019-04-10T01:10:18.072Z,8.00
2019-04-10T01:12:46.274Z,8.00
2019-04-10T01:15:14.465Z,8.00
2019-04-10T01:17:43.386Z,8.00
2019-04-10T01:20:11.382Z,8.00
2019-04-10T01:22:39.615Z,8.10
2019-04-10T01:25:08.275Z,8.10
2019-04-10T01:27:36.192Z,8.20
2019-04-10T01:30:04.351Z,8.20
2019-04-10T01:32:34.231Z,8.20
2019-04-10T01:35:02.490Z,8.20
2019-04-10T01:37:29.974Z,8.20
2019-04-10T01:39:59.016Z,8.20
2019-04-10T01:42:26.468Z,8.10
2019-04-10T01:44:55.227Z,8.10
2019-04-10T01:47:23.431Z,8.00
2019-04-10T01:49:51.124Z,8.10
2019-04-10T01:52:19.352Z,8.10
2019-04-10T01:54:47.573Z,8.10
2019-04-10T01:57:16.684Z,8.10
2019-04-10T01:59:43.969Z,8.10
2019-04-10T02:02:14.824Z,8.10
2019-04-10T02:04:42.362Z,8.10
2019-04-10T02:07:10.535Z,8.10
2019-04-10T02:09:39.288Z,8.10
2019-04-10T02:12:07.176Z,8.10
2019-04-10T02:14:36.346Z,8.10
2019-04-10T02:17:04.287Z,8.00
2019-04-10T02:19:32.288Z,8.00
2019-04-10T02:22:00.309Z,8.20
2019-04-10T02:24:29.267Z,8.20
2019-04-10T02:26:56.344Z,8.10
2019-04-10T02:29:24.553Z,8.10
2019-04-10T02:31:54.870Z,8.20
2019-04-10T02:34:21.364Z,8.20
2019-04-10T02:36:50.671Z,8.20
2019-04-10T02:39:26.607Z,8.30
2019-04-10T02:41:45.867Z,8.30
2019-04-10T02:44:14.065Z,8.30
2019-04-10T02:46:42.138Z,8.30
2019-04-10T02:49:12.087Z,8.30
2019-04-10T02:51:38.951Z,8.30
2019-04-10T02:54:06.840Z,8.20
2019-04-10T02:56:36.524Z,8.20
2019-04-10T02:59:04.863Z,8.30
2019-04-10T03:01:31.629Z,8.20
2019-04-10T03:04:01.308Z,8.10
2019-04-10T03:06:29.186Z,8.10
2019-04-10T03:09:13.769Z,8.00
2019-04-10T03:11:25.905Z,7.90
2019-04-10T03:13:53.377Z,7.90
2019-04-10T03:16:21.604Z,7.90
2019-04-10T03:18:49.324Z,7.80
2019-04-10T03:21:17.245Z,7.90
2019-04-10T03:23:45.505Z,7.80
2019-04-10T03:26:13.728Z,7.80
2019-04-10T03:28:43.000Z,7.70
2019-04-10T03:31:10.745Z,7.70
2019-04-10T03:33:44.173Z,7.70
2019-04-10T03:36:07.369Z,7.70
2019-04-10T03:38:47.315Z,7.70
2019-04-10T03:41:04.018Z,7.70
2019-04-10T03:43:32.011Z,7.70
2019-04-10T03:45:59.628Z,7.70
2019-04-10T03:48:27.858Z,7.60
2019-04-10T03:50:57.130Z,7.60
2019-04-10T03:53:24.644Z,7.60
2019-04-10T03:55:53.550Z,7.60
2019-04-10T03:58:20.783Z,7.70
2019-04-10T04:00:50.544Z,7.70
2019-04-10T04:03:18.227Z,7.80
2019-04-10T04:05:45.445Z,7.80
2019-04-10T04:08:13.708Z,7.70
2019-04-10T04:10:42.614Z,7.70
2019-04-10T04:13:11.077Z,7.60
2019-04-10T04:15:38.443Z,7.60
2019-04-10T04:18:06.794Z,7.50
2019-04-10T04:20:35.036Z,7.60
2019-04-10T04:23:03.481Z,7.60
2019-04-10T04:25:32.422Z,7.60
2019-04-10T04:28:00.454Z,7.60
2019-04-10T04:30:27.819Z,7.60
2019-04-10T04:32:56.114Z,7.60
2019-04-10T04:35:24.271Z,7.50
2019-04-10T04:37:52.678Z,7.60
2019-04-10T04:40:21.739Z,7.60
2019-04-10T04:42:49.402Z,7.60
2019-04-10T04:45:17.327Z,7.60
2019-04-10T04:47:45.425Z,7.50
2019-04-10T04:50:13.657Z,7.50
2019-04-10T04:52:41.934Z,7.60
2019-04-10T04:55:10.158Z,7.60
2019-04-10T04:57:39.670Z,7.60
2019-04-10T05:00:07.657Z,7.60
2019-04-10T05:02:34.885Z,7.50
2019-04-10T05:05:03.036Z,7.50
2019-04-10T05:07:31.309Z,7.50
2019-04-10T05:10:01.418Z,7.50
2019-04-10T05:12:27.725Z,7.50
2019-04-10T05:14:55.872Z,7.50
2019-04-10T05:17:24.197Z,7.50
2019-04-10T05:19:52.586Z,7.50
2019-04-10T05:22:20.683Z,7.40
2019-04-10T05:24:48.954Z,7.40
2019-04-10T05:27:18.095Z,7.30
2019-04-10T05:29:45.431Z,7.30
2019-04-10T05:32:14.512Z,7.20
2019-04-10T05:34:43.207Z,7.30
2019-04-10T05:37:10.139Z,7.20
2019-04-10T05:39:43.215Z,7.20
2019-04-10T05:42:06.586Z,7.20
2019-04-10T05:44:35.058Z,7.20
2019-04-10T05:47:03.368Z,7.20
2019-04-10T05:49:31.229Z,7.20
2019-04-10T05:51:59.492Z,7.20
2019-04-10T05:54:27.705Z,7.20
2019-04-10T05:56:55.951Z,7.20
2019-04-10T05:59:24.173Z,7.20
2019-04-10T06:01:52.715Z,7.20
2019-04-10T06:04:21.048Z,7.30
2019-04-10T06:06:48.877Z,7.30
2019-04-10T06:09:17.108Z,7.30
2019-04-10T06:11:45.755Z,7.30
2019-04-10T06:14:13.614Z,7.30
2019-04-10T06:16:42.625Z,7.30
2019-04-10T06:19:10.041Z,7.40
2019-04-10T06:21:38.292Z,7.40
2019-04-10T06:24:07.768Z,7.40
2019-04-10T06:26:35.526Z,7.40
2019-04-10T06:29:02.935Z,7.50
2019-04-10T06:31:31.137Z,7.50
2019-04-10T06:34:00.365Z,7.50
2019-04-10T06:36:27.571Z,7.60
2019-04-10T06:38:55.791Z,7.60
2019-04-10T06:41:24.302Z,7.60
2019-04-10T06:43:53.080Z,7.60
2019-04-10T06:46:20.458Z,7.70
2019-04-10T06:48:48.685Z,7.70
2019-04-10T06:51:18.825Z,7.70
2019-04-10T06:53:45.184Z,7.70
2019-04-10T06:56:13.429Z,7.70
2019-04-10T06:58:42.442Z,7.70
2019-04-10T07:01:10.424Z,7.70
2019-04-10T07:03:49.490Z,7.70
2019-04-10T07:06:14.383Z,7.70
2019-04-10T07:08:34.605Z,7.80
2019-04-10T07:11:08.662Z,7.80
2019-04-10T07:13:32.145Z,8.00
2019-04-10T07:15:59.973Z,8.10
2019-04-10T07:18:28.423Z,8.20
2019-04-10T07:20:58.359Z,8.20
2019-04-10T07:23:28.817Z,8.30
2019-04-10T07:25:52.245Z,8.40
2019-04-10T07:28:21.555Z,8.40
2019-04-10T07:30:48.762Z,8.50
2019-04-10T07:33:19.194Z,8.60
2019-04-10T07:35:46.370Z,8.70
2019-04-10T07:38:13.935Z,8.80
2019-04-10T07:40:42.791Z,8.90
2019-04-10T07:43:09.880Z,9.00
2019-04-10T07:45:38.138Z,9.00
2019-04-10T07:48:06.614Z,9.10
2019-04-10T07:50:34.865Z,9.10
2019-04-10T07:53:03.053Z,9.20
2019-04-10T07:55:31.033Z,9.30
2019-04-10T07:57:59.383Z,9.30
2019-04-10T08:00:28.471Z,9.40
2019-04-10T08:02:57.238Z,9.40
2019-04-10T08:05:25.048Z,9.70
2019-04-10T08:10:50.956Z,9.90
2019-04-10T08:13:18.783Z,10.00
2019-04-10T08:15:47.018Z,10.10
2019-04-10T08:18:15.300Z,10.10
2019-04-10T08:20:43.534Z,10.10
2019-04-10T08:23:12.330Z,10.20
2019-04-10T08:25:40.875Z,10.50
2019-04-10T08:28:09.163Z,10.60
2019-04-10T08:30:36.480Z,10.80
2019-04-10T08:33:05.981Z,10.80
2019-04-10T08:35:33.594Z,10.90
2019-04-10T08:38:01.390Z,11.00
2019-04-10T08:40:30.009Z,11.00
2019-04-10T08:42:57.868Z,10.90
2019-04-10T08:45:35.788Z,11.00
2019-04-10T08:47:54.295Z,11.10
2019-04-10T08:50:22.540Z,11.20
2019-04-10T08:52:50.866Z,11.30
2019-04-10T08:55:19.051Z,11.50
2019-04-10T08:57:48.486Z,11.50
2019-04-10T09:00:16.739Z,11.50
2019-04-10T09:02:44.991Z,11.80
2019-04-10T09:05:13.313Z,11.90
2019-04-10T09:07:41.425Z,11.70
2019-04-10T09:10:10.247Z,11.80
2019-04-10T09:12:38.952Z,12.00
2019-04-10T09:15:07.800Z,11.90
2019-04-10T09:17:35.591Z,11.80
2019-04-10T09:20:04.509Z,11.90
2019-04-10T09:22:47.960Z,12.00
2019-04-10T09:25:00.712Z,11.90
2019-04-10T09:27:28.972Z,11.70
2019-04-10T09:29:56.754Z,11.60
2019-04-10T09:32:26.457Z,11.50
2019-04-10T09:34:54.309Z,11.30
2019-04-10T09:37:22.571Z,11.20
2019-04-10T09:39:52.391Z,11.20
2019-04-10T09:42:19.407Z,11.20
2019-04-10T09:44:48.497Z,11.30
2019-04-10T09:47:16.430Z,11.40
2019-04-10T09:49:46.784Z,11.50
2019-04-10T09:52:12.423Z,11.80
2019-04-10T09:54:40.477Z,11.90
2019-04-10T09:57:09.095Z,12.20
2019-04-10T09:59:39.580Z,12.50
2019-04-10T10:02:05.157Z,12.60
2019-04-10T10:04:33.413Z,12.70
2019-04-10T10:07:01.975Z,12.80
2019-04-10T10:09:30.718Z,12.70
2019-04-10T10:11:58.932Z,12.90
2019-04-10T10:14:26.578Z,12.90
2019-04-10T10:16:54.648Z,12.90
2019-04-10T10:19:23.737Z,12.90
2019-04-10T10:21:51.133Z,12.60
2019-04-10T10:24:19.429Z,12.40
2019-04-10T10:26:47.732Z,12.10
2019-04-10T10:29:15.927Z,11.90
2019-04-10T10:31:44.443Z,11.80
2019-04-10T10:34:12.393Z,11.80
2019-04-10T10:36:44.467Z,11.80
2019-04-10T10:39:14.395Z,11.60
2019-04-10T10:41:40.955Z,11.50
2019-04-10T10:44:09.243Z,11.50
2019-04-10T10:46:37.716Z,11.50
2019-04-10T10:49:06.271Z,11.50
2019-04-10T10:51:34.965Z,11.40
2019-04-10T10:54:03.857Z,11.40
2019-04-10T10:56:30.672Z,11.40
2019-04-10T10:58:59.023Z,11.50
2019-04-10T11:01:27.564Z,11.50
2019-04-10T11:03:56.262Z,11.50
2019-04-10T11:06:23.351Z,11.70
2019-04-10T11:08:51.990Z,11.60
2019-04-10T11:11:20.199Z,11.60
2019-04-10T11:13:48.521Z,11.60
2019-04-10T11:16:17.090Z,11.60
2019-04-10T11:18:45.094Z,11.50
2019-04-10T11:21:14.124Z,11.40
2019-04-10T11:23:42.441Z,11.50
2019-04-10T11:26:11.073Z,11.50
2019-04-10T11:28:39.163Z,11.60
2019-04-10T11:31:07.511Z,11.70
2019-04-10T11:33:34.820Z,11.60
2019-04-10T11:36:03.774Z,11.70
2019-04-10T11:38:31.136Z,11.90
2019-04-10T11:41:00.076Z,11.90
2019-04-10T11:43:27.897Z,11.90
2019-04-10T11:45:58.501Z,12.00
2019-04-10T11:48:25.641Z,12.10
2019-04-10T11:50:55.842Z,12.30
2019-04-10T11:53:21.478Z,12.20
2019-04-10T11:55:50.973Z,12.10
2019-04-10T11:58:17.899Z,12.30
2019-04-10T12:00:51.209Z,12.30
2019-04-10T12:03:15.251Z,12.40
2019-04-10T12:05:42.375Z,12.60
2019-04-10T12:08:33.642Z,12.60
2019-04-10T12:13:06.427Z,13.00
2019-04-10T12:15:34.650Z,13.20
2019-04-10T12:18:02.887Z,13.20
2019-04-10T12:20:31.349Z,13.10
2019-04-10T12:23:00.460Z,13.40
2019-04-10T12:25:27.684Z,13.80
2019-04-10T12:27:55.939Z,14.20
2019-04-10T12:30:24.213Z,14.60
2019-04-10T12:32:52.617Z,14.80
2019-04-10T12:35:20.601Z,14.70
2019-04-10T12:38:01.451Z,14.90
2019-04-10T12:40:19.408Z,15.10
2019-04-10T12:42:46.458Z,15.30
2019-04-10T12:45:15.710Z,15.20
2019-04-10T12:47:42.940Z,14.90
2019-04-10T12:50:12.067Z,14.90
2019-04-10T12:52:39.398Z,14.90
2019-04-10T12:55:08.155Z,15.20
2019-04-10T12:57:35.793Z,15.80
2019-04-10T13:00:04.950Z,16.80
2019-04-10T13:02:32.311Z,16.90
2019-04-10T13:05:00.829Z,17.20
2019-04-10T13:07:29.680Z,17.30
2019-04-10T13:09:58.080Z,17.20
2019-04-10T13:12:25.148Z,17.60
2019-04-10T13:14:53.419Z,17.50
2019-04-10T13:17:22.698Z,17.90
2019-04-10T13:19:49.848Z,18.50
2019-04-10T13:22:18.112Z,18.10
2019-04-10T13:24:46.310Z,17.40
2019-04-10T13:27:14.696Z,17.20
2019-04-10T13:29:42.765Z,16.90
2019-04-10T13:32:11.731Z,16.50
2019-04-10T13:34:39.653Z,16.00
2019-04-10T13:37:08.315Z,15.80
2019-04-10T13:39:35.696Z,15.60
2019-04-10T13:42:04.985Z,15.70
2019-04-10T13:44:32.923Z,15.70
2019-04-10T13:47:01.510Z,15.70
2019-04-10T13:49:28.918Z,15.40
2019-04-10T13:51:57.159Z,15.00
2019-04-10T13:54:26.332Z,15.00
2019-04-10T13:56:53.547Z,14.80
2019-04-10T13:59:22.667Z,14.60
2019-04-10T14:01:50.189Z,14.50
2019-04-10T14:04:18.764Z,14.40
2019-04-10T14:06:49.148Z,14.40
2019-04-10T14:09:28.773Z,14.40
2019-04-10T14:11:43.679Z,14.50
2019-04-10T14:14:11.244Z,14.30
2019-04-10T14:16:39.441Z,14.20
2019-04-10T14:19:07.762Z,14.10
2019-04-10T14:21:35.865Z,14.00
2019-04-10T14:24:05.107Z,14.00
2019-04-10T14:26:43.942Z,14.10
2019-04-10T14:29:05.280Z,14.20
2019-04-10T14:31:32.572Z,14.30
2019-04-10T14:34:01.676Z,14.50
2019-04-10T14:36:29.780Z,14.90
2019-04-10T14:39:08.638Z,15.30
2019-04-10T14:41:26.189Z,15.60
2019-04-10T14:43:53.734Z,15.70
2019-04-10T14:46:21.920Z,15.80
2019-04-10T14:48:50.291Z,15.90
2019-04-10T14:51:18.469Z,15.80
2019-04-10T14:53:46.915Z,15.90
2019-04-10T14:56:15.636Z,16.70
2019-04-10T14:58:43.152Z,17.50
2019-04-10T15:01:11.901Z,17.40
2019-04-10T15:03:40.404Z,17.00
2019-04-10T15:06:09.157Z,16.40
2019-04-10T15:08:36.587Z,16.10
2019-04-10T15:11:04.803Z,16.00
2019-04-10T15:13:33.932Z,15.80
2019-04-10T15:16:01.202Z,15.90
2019-04-10T15:18:29.481Z,15.90
2019-04-10T15:20:58.598Z,15.80
2019-04-10T15:23:26.034Z,15.70
2019-04-10T15:25:55.412Z,15.60
2019-04-10T15:28:23.227Z,15.50
2019-04-10T15:30:50.865Z,15.30
2019-04-10T15:33:18.983Z,15.10
2019-04-10T15:35:47.245Z,15.10
2019-04-10T15:38:15.421Z,15.10
2019-04-10T15:40:44.049Z,15.20
2019-04-10T15:43:12.631Z,15.30
2019-04-10T15:45:40.182Z,15.50
2019-04-10T15:48:08.450Z,15.60
2019-04-10T15:50:36.719Z,15.60
2019-04-10T15:53:05.037Z,15.60
2019-04-10T15:55:33.198Z,15.80
2019-04-10T15:58:03.630Z,15.90
2019-04-10T16:00:29.606Z,16.10
2019-04-10T16:02:57.881Z,15.90
2019-04-10T16:05:26.115Z,16.00
2019-04-10T16:07:55.250Z,16.20
2019-04-10T16:10:26.464Z,16.40
2019-04-10T16:12:55.514Z,16.80
2019-04-10T16:15:22.930Z,16.90
2019-04-10T16:17:52.470Z,16.80
2019-04-10T16:20:19.659Z,16.60
2019-04-10T16:22:51.036Z,16.20
2019-04-10T16:25:19.773Z,16.00
2019-04-10T16:27:48.213Z,15.80
2019-04-10T16:30:17.207Z,15.80
2019-04-10T16:32:44.715Z,15.80
2019-04-10T16:35:13.883Z,15.70
2019-04-10T16:37:41.864Z,15.60
2019-04-10T16:40:10.504Z,15.50
2019-04-10T16:42:37.657Z,15.40
2019-04-10T16:45:05.943Z,15.00
2019-04-10T16:47:34.363Z,14.80
2019-04-10T16:50:03.432Z,14.40
2019-04-10T16:52:31.252Z,14.20
2019-04-10T16:54:59.707Z,14.00
2019-04-10T16:57:26.992Z,13.80
2019-04-10T16:59:56.048Z,13.50
2019-04-10T17:02:24.233Z,13.30
2019-04-10T17:04:52.166Z,13.20
2019-04-10T17:07:21.008Z,13.10
2019-04-10T17:09:49.936Z,12.90
2019-04-10T17:12:16.467Z,12.90
2019-04-10T17:14:45.703Z,12.80
2019-04-10T17:17:12.965Z,12.80
2019-04-10T17:19:49.258Z,12.80
2019-04-10T17:22:09.405Z,12.70
2019-04-10T17:24:37.660Z,12.70
2019-04-10T17:27:06.417Z,12.60
2019-04-10T17:29:34.156Z,12.50
2019-04-10T17:32:02.648Z,12.40
2019-04-10T17:34:30.614Z,12.30
2019-04-10T17:36:59.214Z,12.20
2019-04-10T17:39:27.198Z,12.20
2019-04-10T17:41:55.821Z,12.10
2019-04-10T17:44:23.613Z,12.00
2019-04-10T17:46:51.888Z,11.90
2019-04-10T17:49:20.192Z,11.80
2019-04-10T17:51:48.309Z,11.70
2019-04-10T17:54:17.792Z,11.50
2019-04-10T17:56:44.792Z,11.40
2019-04-10T17:59:14.098Z,11.20
2019-04-10T18:01:41.256Z,11.10
2019-04-10T18:04:09.567Z,11.00
2019-04-10T18:06:37.679Z,11.00
2019-04-10T18:09:05.961Z,10.90
2019-04-10T18:11:34.145Z,10.90
2019-04-10T18:14:02.741Z,11.00
2019-04-10T18:16:30.613Z,11.00
2019-04-10T18:19:00.010Z,10.90
2019-04-10T18:21:27.092Z,10.80
2019-04-10T18:23:55.761Z,10.70
2019-04-10T18:26:23.690Z,10.70
2019-04-10T18:28:52.029Z,10.70
2019-04-10T18:31:23.551Z,10.70
2019-04-10T18:33:48.938Z,10.70
2019-04-10T18:36:17.467Z,10.70
2019-04-10T18:38:45.863Z,10.70
2019-04-10T18:41:13.766Z,10.60
2019-04-10T18:43:41.193Z,10.60
2019-04-10T18:46:13.398Z,10.60
2019-04-10T18:48:38.778Z,10.50
2019-04-10T18:51:07.815Z,10.40
2019-04-10T18:53:35.145Z,10.40
2019-04-10T18:56:03.012Z,10.30
2019-04-10T18:58:31.679Z,10.20
2019-04-10T19:00:59.518Z,10.20
2019-04-10T19:03:29.647Z,10.10
2019-04-10T19:05:58.350Z,10.00
2019-04-10T19:08:26.090Z,9.90
2019-04-10T19:11:09.513Z,9.80
2019-04-10T19:13:22.530Z,9.70
2019-04-10T19:15:50.855Z,9.60
2019-04-10T19:18:19.566Z,9.50
2019-04-10T19:20:47.066Z,9.50
2019-04-10T19:23:15.314Z,9.40
2019-04-10T19:25:43.614Z,9.30
2019-04-10T19:28:12.807Z,9.20
2019-04-10T19:30:40.043Z,9.10
2019-04-10T19:33:08.288Z,9.10
2019-04-10T19:35:37.289Z,9.00
2019-04-10T19:38:05.181Z,9.00
2019-04-10T19:40:33.962Z,8.90
2019-04-10T19:43:01.990Z,8.70
2019-04-10T19:45:29.902Z,8.60
2019-04-10T19:47:58.913Z,8.60
2019-04-10T19:50:25.830Z,8.30
2019-04-10T19:52:55.046Z,8.10
2019-04-10T19:55:22.270Z,8.00
2019-04-10T19:57:50.478Z,7.90
2019-04-10T20:00:19.934Z,7.80
2019-04-10T20:02:46.949Z,7.60
2019-04-10T20:05:15.310Z,7.40
2019-04-10T20:07:43.555Z,7.30
2019-04-10T20:10:12.876Z,7.40
2019-04-10T20:12:40.445Z,7.40
2019-04-10T20:15:08.344Z,7.20
2019-04-10T20:17:36.539Z,7.10
2019-04-10T20:20:04.782Z,6.80
2019-04-10T20:22:32.993Z,6.60
2019-04-10T20:25:02.152Z,6.30
2019-04-10T20:27:29.395Z,6.10
2019-04-10T20:29:58.008Z,6.00
2019-04-10T20:32:26.062Z,5.90
2019-04-10T20:34:54.280Z,5.70
2019-04-10T20:37:22.907Z,5.60
2019-04-10T20:39:51.633Z,5.50
2019-04-10T20:42:18.931Z,5.40
2019-04-10T20:44:47.173Z,5.30
2019-04-10T20:47:15.783Z,5.20
2019-04-10T20:49:44.627Z,5.20
2019-04-10T20:52:13.209Z,5.10
2019-04-10T20:54:39.975Z,5.10
2019-04-10T20:57:08.225Z,5.00
2019-04-10T20:59:37.065Z,5.00
2019-04-10T21:02:06.155Z,5.00
2019-04-10T21:04:33.824Z,5.00
2019-04-10T21:07:02.772Z,4.90
2019-04-10T21:09:29.906Z,4.90
2019-04-10T21:12:05.257Z,4.90
2019-04-10T21:14:26.220Z,5.00
2019-04-10T21:16:54.427Z,4.90
2019-04-10T21:19:22.667Z,4.80
2019-04-10T21:21:51.057Z,4.70
2019-04-10T21:24:19.081Z,4.60
2019-04-10T21:26:48.469Z,4.60
2019-04-10T21:29:16.357Z,4.60
2019-04-10T21:31:48.310Z,4.50
2019-04-10T21:34:15.827Z,4.50
2019-04-10T21:36:44.016Z,4.50
2019-04-10T21:39:12.400Z,4.50
2019-04-10T21:41:41.156Z,4.50
2019-04-10T21:44:09.910Z,4.50
2019-04-10T21:46:36.899Z,4.50
2019-04-10T21:49:05.705Z,4.40
2019-04-10T21:51:33.590Z,4.40
2019-04-10T21:54:02.226Z,4.30
2019-04-10T21:56:30.927Z,4.40
2019-04-10T21:58:59.147Z,4.40
2019-04-10T22:01:26.365Z,4.40
2019-04-10T22:03:54.578Z,4.40
2019-04-10T22:06:26.719Z,4.40
2019-04-10T22:08:58.299Z,4.30
2019-04-10T22:11:26.095Z,4.20
2019-04-10T22:13:54.812Z,4.20
2019-04-10T22:16:22.630Z,4.20
2019-04-10T22:18:51.880Z,4.20
2019-04-10T22:21:19.036Z,4.20
2019-04-10T22:23:47.308Z,4.10
2019-04-10T22:26:15.796Z,4.10
2019-04-10T22:28:43.733Z,4.10
2019-04-10T22:31:11.947Z,4.30
2019-04-10T22:33:40.519Z,4.40
2019-04-10T22:36:08.668Z,4.50
2019-04-10T22:38:37.713Z,4.50
2019-04-10T22:41:17.427Z,4.40
2019-04-10T22:43:33.169Z,4.30
2019-04-10T22:46:02.497Z,4.30
2019-04-10T22:48:30.627Z,4.20
2019-04-10T22:50:57.672Z,4.10
2019-04-10T22:53:25.910Z,4.10
2019-04-10T22:55:54.154Z,4.30
2019-04-10T22:58:22.391Z,4.40
2019-04-10T23:00:50.934Z,4.50
2019-04-10T23:03:18.855Z,4.50
2019-04-10T23:05:47.095Z,4.60
2019-04-10T23:08:15.639Z,4.70
2019-04-10T23:10:43.603Z,4.70
2019-04-10T23:13:12.019Z,4.60
2019-04-10T23:15:40.015Z,4.50
2019-04-10T23:18:08.245Z,4.50
2019-04-10T23:20:36.449Z,4.50
2019-04-10T23:23:04.703Z,4.50
2019-04-10T23:25:32.879Z,4.50
2019-04-10T23:28:01.150Z,4.50
2019-04-10T23:30:29.359Z,4.40
2019-04-10T23:32:57.608Z,4.40
2019-04-10T23:35:25.828Z,4.40
2019-04-10T23:37:55.109Z,4.40
2019-04-10T23:40:23.013Z,4.40
2019-04-10T23:43:02.662Z,4.20
2019-04-10T23:45:19.641Z,4.20
2019-04-10T23:47:48.669Z,4.10
2019-04-10T23:50:16.556Z,3.90
2019-04-10T23:52:44.434Z,3.80
2019-04-10T23:55:13.617Z,3.70
2019-04-10T23:57:41.191Z,3.70
